createdAt,value
2018-06-02T00:01:29.469Z,59.40
2018-06-02T00:06:32.180Z,59.40
2018-06-02T00:11:34.762Z,59.20
2018-06-02T00:16:37.687Z,59.70
2018-06-02T00:21:40.229Z,59.30
2018-06-02T00:26:43.743Z,55.90
2018-06-02T00:31:46.362Z,55.90
2018-06-02T00:36:49.114Z,55.30
2018-06-02T00:41:51.765Z,55.00
2018-06-02T00:46:55.042Z,55.10
2018-06-02T00:51:58.193Z,54.70
2018-06-02T00:57:01.609Z,54.70
2018-06-02T01:02:04.138Z,54.60
2018-06-02T01:07:06.710Z,54.60
2018-06-02T01:12:09.419Z,54.40
2018-06-02T01:17:12.294Z,54.50
2018-06-02T01:22:15.653Z,54.10
2018-06-02T01:27:18.198Z,54.10
2018-06-02T01:32:20.924Z,54.00
2018-06-02T01:37:23.460Z,53.90
2018-06-02T01:42:26.208Z,53.80
2018-06-02T01:47:28.750Z,53.80
2018-06-02T01:52:31.469Z,53.50
2018-06-02T01:57:34.024Z,53.60
2018-06-02T02:02:36.634Z,53.50
2018-06-02T02:07:39.467Z,53.40
2018-06-02T02:12:42.070Z,53.60
2018-06-02T02:17:45.393Z,53.40
2018-06-02T02:22:48.801Z,53.50
2018-06-02T02:27:51.414Z,53.50
2018-06-02T02:32:55.373Z,53.60
2018-06-02T02:37:57.930Z,53.50
2018-06-02T02:43:00.454Z,53.60
2018-06-02T02:48:03.032Z,53.50
2018-06-02T02:53:05.591Z,53.50
2018-06-02T02:58:08.154Z,53.40
2018-06-02T03:03:10.716Z,53.10
2018-06-02T03:08:13.233Z,53.20
2018-06-02T03:13:15.756Z,53.20
2018-06-02T03:18:18.284Z,53.10
2018-06-02T03:23:20.978Z,53.10
2018-06-02T03:28:24.380Z,53.20
2018-06-02T03:33:27.092Z,53.20
2018-06-02T03:38:29.648Z,53.20
2018-06-02T03:43:32.290Z,53.00
2018-06-02T03:48:35.582Z,53.10
2018-06-02T03:53:38.302Z,53.10
2018-06-02T03:58:41.694Z,53.20
2018-06-02T04:03:44.220Z,53.10
2018-06-02T04:08:46.779Z,53.20
2018-06-02T04:13:49.284Z,53.10
2018-06-02T04:18:52.571Z,53.00
2018-06-02T04:23:55.410Z,53.00
2018-06-02T04:28:58.822Z,52.90
2018-06-02T04:34:01.581Z,52.70
2018-06-02T04:39:04.291Z,52.70
2018-06-02T04:44:07.118Z,52.80
2018-06-02T04:49:09.636Z,52.70
2018-06-02T04:54:12.308Z,52.70
2018-06-02T04:59:14.857Z,52.60
2018-06-02T05:04:17.591Z,52.70
2018-06-02T05:09:20.289Z,52.50
2018-06-02T05:14:23.087Z,52.70
2018-06-02T05:19:26.444Z,52.70
2018-06-02T05:24:29.014Z,52.70
2018-06-02T05:29:31.691Z,52.80
2018-06-02T05:34:34.305Z,52.60
2018-06-02T05:39:37.337Z,52.50
2018-06-02T05:44:39.908Z,52.50
2018-06-02T05:49:43.210Z,52.50
2018-06-02T05:54:45.794Z,52.50
2018-06-02T05:59:48.367Z,52.60
2018-06-02T06:04:50.913Z,52.30
2018-06-02T06:09:53.645Z,52.20
2018-06-02T06:14:56.203Z,52.30
2018-06-02T06:19:59.546Z,52.40
2018-06-02T06:25:02.143Z,52.30
2018-06-02T06:30:04.759Z,52.40
2018-06-02T06:35:07.535Z,52.40
2018-06-02T06:40:10.110Z,52.40
2018-06-02T06:45:13.916Z,52.30
2018-06-02T06:50:17.241Z,52.40
2018-06-02T06:55:24.349Z,52.40
2018-06-02T07:00:26.870Z,52.40
2018-06-02T07:05:29.379Z,52.50
2018-06-02T07:10:32.296Z,52.30
2018-06-02T07:15:34.834Z,52.50
2018-06-02T07:20:38.620Z,52.50
2018-06-02T07:25:41.214Z,52.60
2018-06-02T07:30:43.818Z,52.70
2018-06-02T07:35:46.873Z,52.90
2018-06-02T07:40:49.445Z,52.80
2018-06-02T07:45:52.161Z,53.00
2018-06-02T07:50:54.882Z,52.80
2018-06-02T07:55:57.701Z,52.70
2018-06-02T08:01:00.291Z,53.10
2018-06-02T08:06:03.110Z,53.00
2018-06-02T08:11:05.685Z,53.10
2018-06-02T08:16:08.743Z,53.20
2018-06-02T08:21:12.178Z,52.40
2018-06-02T08:26:15.606Z,52.40
2018-06-02T08:31:18.913Z,52.30
2018-06-02T08:36:21.569Z,52.30
2018-06-02T08:41:24.288Z,52.30
2018-06-02T08:46:26.986Z,53.30
2018-06-02T08:51:29.549Z,52.70
2018-06-02T08:56:32.122Z,53.10
2018-06-02T09:01:34.685Z,53.80
2018-06-02T09:06:37.473Z,53.90
2018-06-02T09:11:40.583Z,53.70
2018-06-02T09:16:43.191Z,53.60
2018-06-02T09:21:45.869Z,53.50
2018-06-02T09:26:48.395Z,53.50
2018-06-02T09:31:50.962Z,53.40
2018-06-02T09:36:53.572Z,53.80
2018-06-02T09:41:56.359Z,53.20
2018-06-02T09:46:59.679Z,53.00
2018-06-02T09:52:02.228Z,53.00
2018-06-02T09:57:04.930Z,52.90
2018-06-02T10:02:07.510Z,52.90
2018-06-02T10:07:10.304Z,52.70
2018-06-02T10:12:12.889Z,52.70
2018-06-02T10:17:15.562Z,52.60
2018-06-02T10:22:19.178Z,52.50
2018-06-02T10:27:21.785Z,52.50
2018-06-02T10:32:24.499Z,52.40
2018-06-02T10:37:27.072Z,52.40
2018-06-02T10:42:29.694Z,52.30
2018-06-02T10:47:32.256Z,52.10
2018-06-02T10:52:34.868Z,52.20
2018-06-02T10:57:37.393Z,52.00
2018-06-02T11:02:40.019Z,52.00
2018-06-02T11:07:42.769Z,51.90
2018-06-02T11:12:45.445Z,51.80
2018-06-02T11:17:48.853Z,51.70
2018-06-02T11:22:51.613Z,51.70
2018-06-02T11:27:54.665Z,51.60
2018-06-02T11:32:59.599Z,51.60
2018-06-02T11:38:02.191Z,51.50
2018-06-02T11:43:04.812Z,51.50
2018-06-02T11:48:07.483Z,51.40
2018-06-02T11:53:10.113Z,51.40
2018-06-02T11:58:12.685Z,51.30
2018-06-02T12:03:16.131Z,51.30
2018-06-02T12:08:18.725Z,51.20
2018-06-02T12:13:21.304Z,51.20
2018-06-02T12:18:24.627Z,51.10
2018-06-02T12:23:27.183Z,51.10
2018-06-02T12:28:29.845Z,51.10
2018-06-02T12:33:32.376Z,51.10
2018-06-02T12:38:35.050Z,51.10
2018-06-02T12:43:37.603Z,51.10
2018-06-02T12:48:40.229Z,51.00
2018-06-02T12:53:42.930Z,50.90
2018-06-02T12:58:46.296Z,50.90
2018-06-02T13:03:48.843Z,50.80
2018-06-02T13:08:51.475Z,50.80
2018-06-02T13:13:54.042Z,50.70
2018-06-02T13:18:56.651Z,50.60
2018-06-02T13:23:59.208Z,50.60
2018-06-02T13:29:02.283Z,50.60
2018-06-02T13:34:04.845Z,51.20
2018-06-02T13:39:07.671Z,50.50
2018-06-02T13:44:11.307Z,50.50
2018-06-02T13:49:15.300Z,50.40
2018-06-02T13:54:17.935Z,50.50
2018-06-02T13:59:20.609Z,50.30
2018-06-02T14:04:23.138Z,50.30
2018-06-02T14:09:25.884Z,50.30
2018-06-02T14:14:28.537Z,50.30
2018-06-02T14:19:31.327Z,50.30
2018-06-02T14:24:34.653Z,50.80
2018-06-02T14:29:37.223Z,50.20
2018-06-02T14:34:39.878Z,50.90
2018-06-02T14:39:42.503Z,50.20
2018-06-02T14:44:45.886Z,50.10
2018-06-02T14:49:48.445Z,50.10
2018-06-02T14:54:51.024Z,50.10
2018-06-02T14:59:53.645Z,50.10
2018-06-02T15:04:56.239Z,50.10
2018-06-02T15:09:58.791Z,50.10
2018-06-02T15:15:01.543Z,50.00
2018-06-02T15:20:04.288Z,50.00
2018-06-02T15:25:06.986Z,49.90
2018-06-02T15:30:09.885Z,50.00
2018-06-02T15:35:12.708Z,49.90
2018-06-02T15:40:16.037Z,49.90
2018-06-02T15:45:18.647Z,49.80
2018-06-02T15:50:21.197Z,49.80
2018-06-02T15:55:23.772Z,49.80
2018-06-02T16:00:26.399Z,49.80
2018-06-02T16:05:29.887Z,49.80
2018-06-02T16:10:32.581Z,49.80
2018-06-02T16:15:35.346Z,49.80
2018-06-02T16:20:37.886Z,49.80
2018-06-02T16:25:42.489Z,50.30
2018-06-02T16:30:45.360Z,49.70
2018-06-02T16:35:48.780Z,49.70
2018-06-02T16:40:51.326Z,49.70
2018-06-02T16:45:53.928Z,49.60
2018-06-02T16:50:56.491Z,49.60
2018-06-02T16:55:59.569Z,49.60
2018-06-02T17:01:02.855Z,49.60
2018-06-02T17:06:05.583Z,49.50
2018-06-02T17:11:08.205Z,49.60
2018-06-02T17:16:10.764Z,49.60
2018-06-02T17:21:13.310Z,49.80
2018-06-02T17:26:16.773Z,49.50
2018-06-02T17:31:19.354Z,49.50
2018-06-02T17:36:22.694Z,49.50
2018-06-02T17:41:25.248Z,49.40
2018-06-02T17:46:27.812Z,49.50
2018-06-02T17:51:30.376Z,49.50
2018-06-02T17:56:33.878Z,49.50
2018-06-02T18:01:37.447Z,49.50
2018-06-02T18:06:41.549Z,49.50
2018-06-02T18:11:45.666Z,49.60
2018-06-02T18:16:48.572Z,49.40
2018-06-02T18:21:51.878Z,49.60
2018-06-02T18:26:55.780Z,49.50
2018-06-02T18:31:58.686Z,49.50
2018-06-02T18:37:01.320Z,49.40
2018-06-02T18:42:04.214Z,49.40
2018-06-02T18:47:07.531Z,49.40
2018-06-02T18:52:10.072Z,49.40
2018-06-02T18:57:12.911Z,49.40
2018-06-02T19:02:15.692Z,49.40
2018-06-02T19:07:18.380Z,49.40
2018-06-02T19:12:20.971Z,49.40
2018-06-02T19:17:23.534Z,49.40
2018-06-02T19:22:37.312Z,49.40
2018-06-02T19:27:40.287Z,49.40
2018-06-02T19:32:42.871Z,49.40
2018-06-02T19:37:47.113Z,49.30
2018-06-02T19:42:49.664Z,49.20
2018-06-02T19:47:52.241Z,49.30
2018-06-02T19:52:55.064Z,49.30
2018-06-02T19:57:57.628Z,49.30
2018-06-02T20:03:00.419Z,49.90
2018-06-02T20:08:03.305Z,49.30
2018-06-02T20:13:05.835Z,49.30
2018-06-02T20:18:08.510Z,49.30
2018-06-02T20:23:11.135Z,49.30
2018-06-02T20:28:13.698Z,49.20
2018-06-02T20:33:16.424Z,49.30
2018-06-02T20:38:18.986Z,49.20
2018-06-02T20:43:21.869Z,49.30
2018-06-02T20:48:24.560Z,49.20
2018-06-02T20:53:27.868Z,49.20
2018-06-02T20:58:30.423Z,49.10
2018-06-02T21:03:33.074Z,49.10
2018-06-02T21:08:35.660Z,49.10
2018-06-02T21:13:38.968Z,49.50
2018-06-02T21:18:42.320Z,49.10
2018-06-02T21:23:45.873Z,49.10
2018-06-02T21:28:48.750Z,49.10
2018-06-02T21:33:51.324Z,49.10
2018-06-02T21:38:53.868Z,49.70
2018-06-02T21:43:56.647Z,49.10
2018-06-02T21:48:59.223Z,49.10
2018-06-02T21:54:01.779Z,49.00
2018-06-02T21:59:04.727Z,49.00
2018-06-02T22:04:07.315Z,48.90
2018-06-02T22:09:10.113Z,49.00
2018-06-02T22:14:12.801Z,49.60
2018-06-02T22:19:16.265Z,49.00
2018-06-02T22:24:19.335Z,48.90
2018-06-02T22:29:22.013Z,49.00
2018-06-02T22:34:26.019Z,49.00
2018-06-02T22:39:28.598Z,48.90
2018-06-02T22:44:31.492Z,48.90
2018-06-02T22:49:34.055Z,48.90
2018-06-02T22:54:36.650Z,48.90
2018-06-02T22:59:39.195Z,49.50
2018-06-02T23:04:41.829Z,48.90
2018-06-02T23:09:44.477Z,48.90
2018-06-02T23:14:47.216Z,48.90
2018-06-02T23:19:50.018Z,48.90
2018-06-02T23:24:53.460Z,48.80
2018-06-02T23:29:55.983Z,48.80
2018-06-02T23:34:58.511Z,48.80
2018-06-02T23:40:01.069Z,48.90
2018-06-02T23:45:03.721Z,48.80
2018-06-02T23:50:06.825Z,48.80
2018-06-02T23:55:10.266Z,48.80
